sensor_id;sensor_type;location;lat;lon;timestamp;P1;durP1;ratioP1;P2;durP2;ratioP2
37877;SDS011;23715;53.652;8.516;2022-10-13T00:04:09;22.82;;;20.62;;
37877;SDS011;23715;53.652;8.516;2022-10-13T00:09:09;22.50;;;20.40;;
37877;SDS011;23715;53.652;8.516;2022-10-13T00:14:09;22.65;;;20.48;;
37877;SDS011;23715;53.652;8.516;2022-10-13T00:19:10;23.57;;;21.48;;
37877;SDS011;23715;53.652;8.516;2022-10-13T00:24:10;23.30;;;21.20;;
37877;SDS011;23715;53.652;8.516;2022-10-13T00:29:11;23.45;;;21.30;;
37877;SDS011;23715;53.652;8.516;2022-10-13T00:34:11;22.98;;;20.70;;
37877;SDS011;23715;53.652;8.516;2022-10-13T00:39:11;23.30;;;20.97;;
37877;SDS011;23715;53.652;8.516;2022-10-13T00:49:48;24.02;;;21.73;;
37877;SDS011;23715;53.652;8.516;2022-10-13T00:54:50;25.80;;;23.15;;
37877;SDS011;23715;53.652;8.516;2022-10-13T00:59:52;27.37;;;23.55;;
37877;SDS011;23715;53.652;8.516;2022-10-13T01:04:53;26.45;;;23.83;;
37877;SDS011;23715;53.652;8.516;2022-10-13T01:09:55;27.60;;;25.05;;
37877;SDS011;23715;53.652;8.516;2022-10-13T01:15:04;26.60;;;23.95;;
37877;SDS011;23715;53.652;8.516;2022-10-13T01:25:49;27.00;;;24.67;;
37877;SDS011;23715;53.652;8.516;2022-10-13T01:30:53;27.73;;;24.87;;
37877;SDS011;23715;53.652;8.516;2022-10-13T01:36:04;28.02;;;25.80;;
37877;SDS011;23715;53.652;8.516;2022-10-13T01:41:22;28.05;;;25.43;;
37877;SDS011;23715;53.652;8.516;2022-10-13T01:46:38;28.95;;;26.20;;
37877;SDS011;23715;53.652;8.516;2022-10-13T01:51:39;26.33;;;24.07;;
37877;SDS011;23715;53.652;8.516;2022-10-13T01:56:40;28.40;;;25.72;;
37877;SDS011;23715;53.652;8.516;2022-10-13T02:01:59;27.48;;;24.82;;
37877;SDS011;23715;53.652;8.516;2022-10-13T02:07:30;28.95;;;26.10;;
37877;SDS011;23715;53.652;8.516;2022-10-13T02:12:52;28.38;;;25.68;;
37877;SDS011;23715;53.652;8.516;2022-10-13T02:17:57;26.75;;;24.30;;
37877;SDS011;23715;53.652;8.516;2022-10-13T02:23:03;28.00;;;25.50;;
37877;SDS011;23715;53.652;8.516;2022-10-13T02:28:06;33.50;;;29.18;;
37877;SDS011;23715;53.652;8.516;2022-10-13T02:33:08;29.50;;;26.90;;
37877;SDS011;23715;53.652;8.516;2022-10-13T02:38:10;28.67;;;25.77;;
37877;SDS011;23715;53.652;8.516;2022-10-13T02:48:10;29.95;;;25.88;;
37877;SDS011;23715;53.652;8.516;2022-10-13T02:53:10;29.45;;;26.40;;
37877;SDS011;23715;53.652;8.516;2022-10-13T02:58:11;30.60;;;27.75;;
37877;SDS011;23715;53.652;8.516;2022-10-13T03:03:11;29.90;;;27.40;;
37877;SDS011;23715;53.652;8.516;2022-10-13T03:08:12;30.32;;;27.58;;
37877;SDS011;23715;53.652;8.516;2022-10-13T03:13:14;30.97;;;28.23;;
37877;SDS011;23715;53.652;8.516;2022-10-13T03:18:14;30.68;;;27.67;;
37877;SDS011;23715;53.652;8.516;2022-10-13T03:23:14;31.40;;;28.32;;
37877;SDS011;23715;53.652;8.516;2022-10-13T03:28:15;32.63;;;29.18;;
37877;SDS011;23715;53.652;8.516;2022-10-13T03:33:16;30.37;;;27.77;;
37877;SDS011;23715;53.652;8.516;2022-10-13T03:38:17;32.73;;;29.85;;
37877;SDS011;23715;53.652;8.516;2022-10-13T03:43:17;31.82;;;28.85;;
37877;SDS011;23715;53.652;8.516;2022-10-13T03:48:18;32.63;;;29.45;;
37877;SDS011;23715;53.652;8.516;2022-10-13T03:53:18;32.35;;;29.25;;
37877;SDS011;23715;53.652;8.516;2022-10-13T03:58:19;32.53;;;29.48;;
37877;SDS011;23715;53.652;8.516;2022-10-13T04:03:23;33.92;;;30.68;;
37877;SDS011;23715;53.652;8.516;2022-10-13T04:13:23;34.38;;;31.05;;
37877;SDS011;23715;53.652;8.516;2022-10-13T04:23:23;36.40;;;32.70;;
37877;SDS011;23715;53.652;8.516;2022-10-13T04:28:23;36.08;;;32.35;;
37877;SDS011;23715;53.652;8.516;2022-10-13T04:33:24;37.40;;;33.92;;
37877;SDS011;23715;53.652;8.516;2022-10-13T04:38:24;36.33;;;33.00;;
37877;SDS011;23715;53.652;8.516;2022-10-13T04:43:24;36.70;;;33.58;;
37877;SDS011;23715;53.652;8.516;2022-10-13T04:48:26;38.28;;;34.55;;
37877;SDS011;23715;53.652;8.516;2022-10-13T04:58:26;39.27;;;35.88;;
37877;SDS011;23715;53.652;8.516;2022-10-13T05:03:29;41.28;;;37.33;;
37877;SDS011;23715;53.652;8.516;2022-10-13T05:08:29;41.00;;;37.08;;
37877;SDS011;23715;53.652;8.516;2022-10-13T05:13:31;40.63;;;36.50;;
37877;SDS011;23715;53.652;8.516;2022-10-13T05:23:31;39.07;;;35.00;;
37877;SDS011;23715;53.652;8.516;2022-10-13T05:28:31;41.95;;;36.42;;
37877;SDS011;23715;53.652;8.516;2022-10-13T05:33:32;40.35;;;36.38;;
37877;SDS011;23715;53.652;8.516;2022-10-13T05:43:32;39.65;;;35.45;;
37877;SDS011;23715;53.652;8.516;2022-10-13T05:48:33;40.85;;;36.50;;
37877;SDS011;23715;53.652;8.516;2022-10-13T05:53:35;40.13;;;36.43;;
37877;SDS011;23715;53.652;8.516;2022-10-13T05:58:42;39.05;;;35.38;;
37877;SDS011;23715;53.652;8.516;2022-10-13T06:03:44;40.48;;;36.60;;
37877;SDS011;23715;53.652;8.516;2022-10-13T06:08:46;39.73;;;35.45;;
37877;SDS011;23715;53.652;8.516;2022-10-13T06:13:48;39.63;;;35.65;;
37877;SDS011;23715;53.652;8.516;2022-10-13T06:23:48;41.95;;;35.98;;
37877;SDS011;23715;53.652;8.516;2022-10-13T06:33:49;47.53;;;37.10;;
37877;SDS011;23715;53.652;8.516;2022-10-13T06:38:49;40.50;;;36.20;;
37877;SDS011;23715;53.652;8.516;2022-10-13T06:43:52;41.10;;;37.03;;
37877;SDS011;23715;53.652;8.516;2022-10-13T06:48:52;41.45;;;37.35;;
37877;SDS011;23715;53.652;8.516;2022-10-13T06:53:54;47.83;;;39.25;;
37877;SDS011;23715;53.652;8.516;2022-10-13T06:58:56;42.25;;;38.00;;
37877;SDS011;23715;53.652;8.516;2022-10-13T07:08:56;41.95;;;37.80;;
37877;SDS011;23715;53.652;8.516;2022-10-13T07:13:57;43.80;;;39.27;;
37877;SDS011;23715;53.652;8.516;2022-10-13T07:23:57;43.83;;;39.60;;
37877;SDS011;23715;53.652;8.516;2022-10-13T07:28:58;44.30;;;39.92;;
37877;SDS011;23715;53.652;8.516;2022-10-13T07:38:59;44.50;;;40.38;;
37877;SDS011;23715;53.652;8.516;2022-10-13T07:44:02;45.88;;;41.40;;
37877;SDS011;23715;53.652;8.516;2022-10-13T07:49:02;46.28;;;41.50;;
37877;SDS011;23715;53.652;8.516;2022-10-13T07:59:03;47.30;;;42.62;;
37877;SDS011;23715;53.652;8.516;2022-10-13T08:04:04;47.23;;;42.23;;
37877;SDS011;23715;53.652;8.516;2022-10-13T08:09:04;48.00;;;42.88;;
37877;SDS011;23715;53.652;8.516;2022-10-13T08:14:05;45.60;;;40.80;;
37877;SDS011;23715;53.652;8.516;2022-10-13T08:24:09;45.05;;;40.45;;
37877;SDS011;23715;53.652;8.516;2022-10-13T08:29:11;53.58;;;47.90;;
37877;SDS011;23715;53.652;8.516;2022-10-13T08:34:12;56.53;;;50.58;;
37877;SDS011;23715;53.652;8.516;2022-10-13T08:39:13;57.90;;;49.55;;
37877;SDS011;23715;53.652;8.516;2022-10-13T08:44:21;53.73;;;44.60;;
37877;SDS011;23715;53.652;8.516;2022-10-13T08:49:23;52.27;;;46.90;;
37877;SDS011;23715;53.652;8.516;2022-10-13T08:54:23;50.15;;;45.08;;
37877;SDS011;23715;53.652;8.516;2022-10-13T08:59:24;49.80;;;44.80;;
37877;SDS011;23715;53.652;8.516;2022-10-13T09:09:30;52.08;;;44.08;;
37877;SDS011;23715;53.652;8.516;2022-10-13T09:14:33;54.80;;;48.95;;
37877;SDS011;23715;53.652;8.516;2022-10-13T09:19:35;51.65;;;46.23;;
37877;SDS011;23715;53.652;8.516;2022-10-13T09:24:36;52.50;;;47.25;;
37877;SDS011;23715;53.652;8.516;2022-10-13T09:29:37;58.83;;;50.65;;
37877;SDS011;23715;53.652;8.516;2022-10-13T09:34:38;55.65;;;47.83;;
37877;SDS011;23715;53.652;8.516;2022-10-13T09:39:38;51.90;;;46.90;;
37877;SDS011;23715;53.652;8.516;2022-10-13T09:44:39;53.75;;;47.23;;
37877;SDS011;23715;53.652;8.516;2022-10-13T09:54:45;49.03;;;43.80;;
37877;SDS011;23715;53.652;8.516;2022-10-13T09:59:50;51.37;;;46.23;;
37877;SDS011;23715;53.652;8.516;2022-10-13T10:04:52;51.28;;;45.98;;
37877;SDS011;23715;53.652;8.516;2022-10-13T10:10:05;52.53;;;46.53;;
37877;SDS011;23715;53.652;8.516;2022-10-13T10:15:15;47.83;;;42.95;;
37877;SDS011;23715;53.652;8.516;2022-10-13T10:25:48;46.08;;;41.70;;
37877;SDS011;23715;53.652;8.516;2022-10-13T10:30:55;49.03;;;44.13;;
37877;SDS011;23715;53.652;8.516;2022-10-13T10:36:10;53.83;;;48.30;;
37877;SDS011;23715;53.652;8.516;2022-10-13T10:46:26;51.37;;;46.20;;
37877;SDS011;23715;53.652;8.516;2022-10-13T10:51:31;44.95;;;40.30;;
37877;SDS011;23715;53.652;8.516;2022-10-13T10:56:36;52.57;;;46.13;;
37877;SDS011;23715;53.652;8.516;2022-10-13T11:06:58;52.75;;;47.45;;
37877;SDS011;23715;53.652;8.516;2022-10-13T11:11:58;55.85;;;50.10;;
37877;SDS011;23715;53.652;8.516;2022-10-13T11:22:10;52.98;;;48.05;;
37877;SDS011;23715;53.652;8.516;2022-10-13T11:58:48;54.88;;;49.53;;
37877;SDS011;23715;53.652;8.516;2022-10-13T12:03:49;53.23;;;47.55;;
37877;SDS011;23715;53.652;8.516;2022-10-13T12:08:51;53.42;;;47.78;;
37877;SDS011;23715;53.652;8.516;2022-10-13T12:13:51;54.88;;;49.27;;
37877;SDS011;23715;53.652;8.516;2022-10-13T12:18:52;55.23;;;49.48;;
37877;SDS011;23715;53.652;8.516;2022-10-13T12:24:08;55.40;;;50.12;;
37877;SDS011;23715;53.652;8.516;2022-10-13T12:29:11;55.78;;;49.83;;
37877;SDS011;23715;53.652;8.516;2022-10-13T12:34:26;57.27;;;51.40;;
37877;SDS011;23715;53.652;8.516;2022-10-13T12:39:30;54.35;;;49.05;;
37877;SDS011;23715;53.652;8.516;2022-10-13T12:44:33;56.88;;;51.20;;
37877;SDS011;23715;53.652;8.516;2022-10-13T12:49:34;56.18;;;50.10;;
37877;SDS011;23715;53.652;8.516;2022-10-13T12:54:36;55.08;;;49.53;;
37877;SDS011;23715;53.652;8.516;2022-10-13T12:59:39;59.75;;;53.70;;
37877;SDS011;23715;53.652;8.516;2022-10-13T13:04:42;53.50;;;48.17;;
37877;SDS011;23715;53.652;8.516;2022-10-13T13:09:57;56.77;;;51.00;;
37877;SDS011;23715;53.652;8.516;2022-10-13T13:14:48;57.58;;;48.75;;
37877;SDS011;23715;53.652;8.516;2022-10-13T13:19:52;55.40;;;50.08;;
37877;SDS011;23715;53.652;8.516;2022-10-13T13:24:53;53.13;;;47.50;;
37877;SDS011;23715;53.652;8.516;2022-10-13T13:29:53;50.77;;;46.23;;
37877;SDS011;23715;53.652;8.516;2022-10-13T13:39:54;51.53;;;46.95;;
37877;SDS011;23715;53.652;8.516;2022-10-13T13:44:56;54.70;;;48.95;;
37877;SDS011;23715;53.652;8.516;2022-10-13T13:49:56;50.78;;;45.95;;
37877;SDS011;23715;53.652;8.516;2022-10-13T13:54:57;49.73;;;44.75;;
37877;SDS011;23715;53.652;8.516;2022-10-13T13:59:58;51.37;;;46.58;;
37877;SDS011;23715;53.652;8.516;2022-10-13T14:09:59;48.70;;;43.92;;
37877;SDS011;23715;53.652;8.516;2022-10-13T14:14:59;47.30;;;42.73;;
37877;SDS011;23715;53.652;8.516;2022-10-13T14:20:00;46.55;;;42.17;;
37877;SDS011;23715;53.652;8.516;2022-10-13T14:25:00;45.55;;;41.37;;
37877;SDS011;23715;53.652;8.516;2022-10-13T14:30:01;47.13;;;42.33;;
37877;SDS011;23715;53.652;8.516;2022-10-13T14:35:03;47.48;;;43.08;;
37877;SDS011;23715;53.652;8.516;2022-10-13T14:40:04;49.67;;;44.08;;
37877;SDS011;23715;53.652;8.516;2022-10-13T14:45:05;50.75;;;45.98;;
37877;SDS011;23715;53.652;8.516;2022-10-13T14:50:06;52.88;;;47.38;;
37877;SDS011;23715;53.652;8.516;2022-10-13T14:55:07;51.55;;;46.65;;
37877;SDS011;23715;53.652;8.516;2022-10-13T15:00:09;51.65;;;46.73;;
37877;SDS011;23715;53.652;8.516;2022-10-13T15:05:09;56.92;;;51.20;;
37877;SDS011;23715;53.652;8.516;2022-10-13T15:10:10;54.30;;;49.20;;
37877;SDS011;23715;53.652;8.516;2022-10-13T15:15:10;61.20;;;55.17;;
37877;SDS011;23715;53.652;8.516;2022-10-13T15:20:11;54.03;;;49.20;;
37877;SDS011;23715;53.652;8.516;2022-10-13T15:25:11;54.15;;;48.95;;
37877;SDS011;23715;53.652;8.516;2022-10-13T15:30:12;53.33;;;48.55;;
37877;SDS011;23715;53.652;8.516;2022-10-13T15:35:12;55.45;;;50.23;;
37877;SDS011;23715;53.652;8.516;2022-10-13T15:40:12;53.63;;;48.70;;
37877;SDS011;23715;53.652;8.516;2022-10-13T15:45:13;49.63;;;45.17;;
37877;SDS011;23715;53.652;8.516;2022-10-13T15:50:14;55.65;;;50.85;;
37877;SDS011;23715;53.652;8.516;2022-10-13T15:55:14;53.02;;;47.95;;
37877;SDS011;23715;53.652;8.516;2022-10-13T16:00:14;50.90;;;46.35;;
37877;SDS011;23715;53.652;8.516;2022-10-13T16:05:15;50.17;;;45.90;;
37877;SDS011;23715;53.652;8.516;2022-10-13T16:10:16;48.68;;;44.50;;
37877;SDS011;23715;53.652;8.516;2022-10-13T16:15:16;49.25;;;44.95;;
37877;SDS011;23715;53.652;8.516;2022-10-13T16:20:17;53.02;;;48.15;;
37877;SDS011;23715;53.652;8.516;2022-10-13T16:25:17;48.43;;;44.33;;
37877;SDS011;23715;53.652;8.516;2022-10-13T16:35:17;52.08;;;47.73;;
37877;SDS011;23715;53.652;8.516;2022-10-13T16:40:18;51.63;;;46.65;;
37877;SDS011;23715;53.652;8.516;2022-10-13T16:45:18;52.58;;;47.67;;
37877;SDS011;23715;53.652;8.516;2022-10-13T16:50:19;53.20;;;48.28;;
37877;SDS011;23715;53.652;8.516;2022-10-13T16:55:19;53.87;;;48.70;;
37877;SDS011;23715;53.652;8.516;2022-10-13T17:00:21;54.60;;;49.55;;
37877;SDS011;23715;53.652;8.516;2022-10-13T17:05:22;52.03;;;47.30;;
37877;SDS011;23715;53.652;8.516;2022-10-13T17:10:24;55.50;;;49.83;;
37877;SDS011;23715;53.652;8.516;2022-10-13T17:15:24;54.50;;;49.40;;
37877;SDS011;23715;53.652;8.516;2022-10-13T17:20:25;52.67;;;47.65;;
37877;SDS011;23715;53.652;8.516;2022-10-13T17:25:25;56.48;;;51.13;;
37877;SDS011;23715;53.652;8.516;2022-10-13T17:30:26;55.90;;;50.48;;
37877;SDS011;23715;53.652;8.516;2022-10-13T17:35:26;57.27;;;51.65;;
37877;SDS011;23715;53.652;8.516;2022-10-13T17:40:28;115.72;;;76.45;;
37877;SDS011;23715;53.652;8.516;2022-10-13T17:45:30;55.15;;;49.98;;
37877;SDS011;23715;53.652;8.516;2022-10-13T17:50:32;55.57;;;50.50;;
37877;SDS011;23715;53.652;8.516;2022-10-13T17:55:33;59.42;;;54.03;;
37877;SDS011;23715;53.652;8.516;2022-10-13T18:00:34;55.58;;;50.45;;
37877;SDS011;23715;53.652;8.516;2022-10-13T18:05:39;54.95;;;49.70;;
37877;SDS011;23715;53.652;8.516;2022-10-13T18:10:39;58.52;;;52.83;;
37877;SDS011;23715;53.652;8.516;2022-10-13T18:15:39;61.15;;;55.45;;
37877;SDS011;23715;53.652;8.516;2022-10-13T18:20:41;55.75;;;50.67;;
37877;SDS011;23715;53.652;8.516;2022-10-13T18:30:43;55.37;;;50.23;;
37877;SDS011;23715;53.652;8.516;2022-10-13T18:40:43;55.75;;;50.45;;
37877;SDS011;23715;53.652;8.516;2022-10-13T18:50:43;53.65;;;48.85;;
37877;SDS011;23715;53.652;8.516;2022-10-13T19:00:43;52.90;;;48.20;;
37877;SDS011;23715;53.652;8.516;2022-10-13T19:05:44;54.48;;;49.50;;
37877;SDS011;23715;53.652;8.516;2022-10-13T19:10:44;59.58;;;54.20;;
37877;SDS011;23715;53.652;8.516;2022-10-13T19:15:44;59.05;;;53.55;;
37877;SDS011;23715;53.652;8.516;2022-10-13T19:20:45;60.35;;;54.70;;
37877;SDS011;23715;53.652;8.516;2022-10-13T19:25:45;57.60;;;52.17;;
37877;SDS011;23715;53.652;8.516;2022-10-13T19:30:47;55.98;;;51.05;;
37877;SDS011;23715;53.652;8.516;2022-10-13T19:35:49;58.15;;;52.65;;
37877;SDS011;23715;53.652;8.516;2022-10-13T19:40:51;59.15;;;53.65;;
37877;SDS011;23715;53.652;8.516;2022-10-13T19:45:51;58.55;;;52.93;;
37877;SDS011;23715;53.652;8.516;2022-10-13T19:50:55;57.67;;;52.38;;
37877;SDS011;23715;53.652;8.516;2022-10-13T19:55:55;59.93;;;54.05;;
37877;SDS011;23715;53.652;8.516;2022-10-13T20:01:00;59.45;;;53.73;;
37877;SDS011;23715;53.652;8.516;2022-10-13T20:06:03;60.58;;;54.77;;
37877;SDS011;23715;53.652;8.516;2022-10-13T20:11:06;59.05;;;53.58;;
37877;SDS011;23715;53.652;8.516;2022-10-13T20:16:08;58.23;;;52.50;;
37877;SDS011;23715;53.652;8.516;2022-10-13T20:21:11;57.10;;;51.08;;
37877;SDS011;23715;53.652;8.516;2022-10-13T20:26:12;57.43;;;52.10;;
37877;SDS011;23715;53.652;8.516;2022-10-13T20:31:13;56.88;;;51.55;;
37877;SDS011;23715;53.652;8.516;2022-10-13T20:36:15;59.58;;;53.87;;
37877;SDS011;23715;53.652;8.516;2022-10-13T20:41:17;56.55;;;51.25;;
37877;SDS011;23715;53.652;8.516;2022-10-13T20:46:22;58.08;;;52.33;;
37877;SDS011;23715;53.652;8.516;2022-10-13T20:51:23;56.35;;;51.08;;
37877;SDS011;23715;53.652;8.516;2022-10-13T20:56:24;57.00;;;51.10;;
37877;SDS011;23715;53.652;8.516;2022-10-13T21:01:24;58.98;;;53.28;;
37877;SDS011;23715;53.652;8.516;2022-10-13T21:11:24;62.57;;;56.20;;
37877;SDS011;23715;53.652;8.516;2022-10-13T21:16:26;63.73;;;57.55;;
37877;SDS011;23715;53.652;8.516;2022-10-13T21:21:28;60.20;;;54.43;;
37877;SDS011;23715;53.652;8.516;2022-10-13T21:26:30;62.03;;;55.95;;
37877;SDS011;23715;53.652;8.516;2022-10-13T21:31:31;62.10;;;55.88;;
37877;SDS011;23715;53.652;8.516;2022-10-13T21:36:32;63.10;;;56.42;;
37877;SDS011;23715;53.652;8.516;2022-10-13T21:41:33;62.93;;;56.93;;
37877;SDS011;23715;53.652;8.516;2022-10-13T21:46:33;60.10;;;54.48;;
37877;SDS011;23715;53.652;8.516;2022-10-13T21:51:35;61.20;;;55.25;;
37877;SDS011;23715;53.652;8.516;2022-10-13T21:56:37;62.65;;;56.53;;
37877;SDS011;23715;53.652;8.516;2022-10-13T22:01:38;64.12;;;57.98;;
37877;SDS011;23715;53.652;8.516;2022-10-13T22:06:45;62.80;;;56.55;;
37877;SDS011;23715;53.652;8.516;2022-10-13T22:11:46;61.68;;;55.35;;
37877;SDS011;23715;53.652;8.516;2022-10-13T22:16:47;62.33;;;55.95;;
37877;SDS011;23715;53.652;8.516;2022-10-13T22:21:49;63.28;;;57.10;;
37877;SDS011;23715;53.652;8.516;2022-10-13T22:26:50;62.35;;;56.30;;
37877;SDS011;23715;53.652;8.516;2022-10-13T22:36:51;65.93;;;59.43;;
37877;SDS011;23715;53.652;8.516;2022-10-13T22:41:52;62.95;;;56.42;;
37877;SDS011;23715;53.652;8.516;2022-10-13T22:46:52;64.80;;;58.55;;
37877;SDS011;23715;53.652;8.516;2022-10-13T22:51:53;63.93;;;57.73;;
37877;SDS011;23715;53.652;8.516;2022-10-13T23:01:52;62.48;;;56.25;;
37877;SDS011;23715;53.652;8.516;2022-10-13T23:06:54;62.20;;;56.10;;
37877;SDS011;23715;53.652;8.516;2022-10-13T23:11:55;62.55;;;56.45;;
37877;SDS011;23715;53.652;8.516;2022-10-13T23:16:55;64.07;;;57.67;;
37877;SDS011;23715;53.652;8.516;2022-10-13T23:21:56;60.60;;;54.53;;
37877;SDS011;23715;53.652;8.516;2022-10-13T23:26:56;64.10;;;57.73;;
37877;SDS011;23715;53.652;8.516;2022-10-13T23:31:58;65.25;;;58.73;;
37877;SDS011;23715;53.652;8.516;2022-10-13T23:36:58;63.08;;;56.90;;
37877;SDS011;23715;53.652;8.516;2022-10-13T23:41:59;64.17;;;58.00;;
37877;SDS011;23715;53.652;8.516;2022-10-13T23:46:59;64.70;;;58.38;;
37877;SDS011;23715;53.652;8.516;2022-10-13T23:52:00;66.20;;;59.60;;
37877;SDS011;23715;53.652;8.516;2022-10-13T23:57:00;66.57;;;59.77;;
